sensor_id;sensor_type;location;lat;lon;timestamp;pressure;altitude;pressure_sealevel;temperature;humidity
63907;BME280;50075;49.484;11.238;2023-06-22T17:58:15;97247.31;;;32.86;35.25
63907;BME280;50075;49.484;11.238;2023-06-22T18:00:41;97252.41;;;33.23;35.20
63907;BME280;50075;49.484;11.238;2023-06-22T18:03:08;97254.75;;;33.43;34.17
63907;BME280;50075;49.484;11.238;2023-06-22T18:05:36;97261.00;;;33.60;33.54
63907;BME280;50075;49.484;11.238;2023-06-22T18:08:03;97276.84;;;33.63;33.67
63907;BME280;50075;49.484;11.238;2023-06-22T18:10:34;97276.31;;;33.51;34.13
63907;BME280;50075;49.484;11.238;2023-06-22T18:13:01;97284.91;;;33.38;34.43
63907;BME280;50075;49.484;11.238;2023-06-22T18:15:29;97280.84;;;33.25;35.36
63907;BME280;50075;49.484;11.238;2023-06-22T18:17:56;97280.50;;;33.12;34.94
63907;BME280;50075;49.484;11.238;2023-06-22T18:20:23;97275.59;;;32.99;35.85
63907;BME280;50075;49.484;11.238;2023-06-22T18:22:49;97276.56;;;32.90;35.69
63907;BME280;50075;49.484;11.238;2023-06-22T18:25:15;97271.16;;;32.81;36.24
63907;BME280;50075;49.484;11.238;2023-06-22T18:27:42;97271.84;;;32.75;35.87
63907;BME280;50075;49.484;11.238;2023-06-22T18:30:09;97272.31;;;32.70;35.96
63907;BME280;50075;49.484;11.238;2023-06-22T18:32:35;97262.06;;;32.66;36.15
63907;BME280;50075;49.484;11.238;2023-06-22T18:35:02;97252.31;;;32.73;36.50
63907;BME280;50075;49.484;11.238;2023-06-22T18:37:30;97264.44;;;32.69;37.51
63907;BME280;50075;49.484;11.238;2023-06-22T18:39:57;97264.56;;;32.59;37.83
63907;BME280;50075;49.484;11.238;2023-06-22T18:42:23;97265.72;;;32.48;39.14
63907;BME280;50075;49.484;11.238;2023-06-22T18:44:52;97270.88;;;32.41;39.73
63907;BME280;50075;49.484;11.238;2023-06-22T18:47:28;97278.66;;;32.18;42.06
63907;BME280;50075;49.484;11.238;2023-06-22T18:50:04;97266.84;;;32.11;41.49
63907;BME280;50075;49.484;11.238;2023-06-22T18:52:30;97266.91;;;31.92;43.42
63907;BME280;50075;49.484;11.238;2023-06-22T18:54:55;61531.34;;;-148.24;100.00
63907;BME280;50075;49.484;11.238;2023-06-22T18:57:26;61531.34;;;-148.24;100.00
63907;BME280;50075;49.484;11.238;2023-06-22T19:00:29;61531.34;;;-148.24;100.00
63907;BME280;50075;49.484;11.238;2023-06-22T19:02:58;61531.34;;;-148.24;100.00
63907;BME280;50075;49.484;11.238;2023-06-22T19:05:56;61531.34;;;-148.24;100.00
63907;BME280;50075;49.484;11.238;2023-06-22T19:08:21;61531.34;;;-148.24;100.00
63907;BME280;50075;49.484;11.238;2023-06-22T19:10:49;61531.34;;;-148.24;100.00
63907;BME280;50075;49.484;11.238;2023-06-22T19:15:53;61531.34;;;-148.24;100.00
63907;BME280;50075;49.484;11.238;2023-06-22T19:18:47;61531.34;;;-148.24;100.00
63907;BME280;50075;49.484;11.238;2023-06-22T19:21:14;61531.34;;;-148.24;100.00
63907;BME280;50075;49.484;11.238;2023-06-22T19:23:44;61531.34;;;-148.24;100.00
63907;BME280;50075;49.484;11.238;2023-06-22T19:26:12;61531.34;;;-148.24;100.00
63907;BME280;50075;49.484;11.238;2023-06-22T19:28:50;61531.34;;;-148.24;100.00
63907;BME280;50075;49.484;11.238;2023-06-22T19:31:18;61531.34;;;-148.24;100.00
63907;BME280;50075;49.484;11.238;2023-06-22T19:33:44;61531.34;;;-148.24;100.00
63907;BME280;50075;49.484;11.238;2023-06-22T19:36:10;61531.34;;;-148.24;100.00
63907;BME280;50075;49.484;11.238;2023-06-22T19:38:38;61531.34;;;-148.24;100.00
63907;BME280;50075;49.484;11.238;2023-06-22T19:41:06;61531.34;;;-148.24;100.00
63907;BME280;50075;49.484;11.238;2023-06-22T19:43:33;61531.34;;;-148.24;100.00
63907;BME280;50075;49.484;11.238;2023-06-22T19:45:58;61531.34;;;-148.24;100.00
63907;BME280;50075;49.484;11.238;2023-06-22T19:48:29;61531.34;;;-148.24;100.00
